Back to Top

My Weather Underground Personal Weather Station Historical Data with Graphs...

Delerius Weather Station Historical Data
Daily Summary for November 27, 2020 Units:  English    Metric   Both
Daily Weekly Monthly Yearly
  High: Low: Average:
Temperature: 45.5 °F 35.6 °F 39.6 °F
Dew Point: 40.3 °F 33.8 °F 36.5 °F
Humidity: 98% 78% 89%
Wind Speed: 7.5mph 0mph 1.1mph
Wind Gust: 11mph - -
Wind- - WSW
Pressure: 30.2 in 30.1 in -
Precipitation: 0 in    
 
 
Tabular Data for November 27, 2020
Time Temperature Dew Point Pressure Wind Wind Speed Wind Gust Humidity Rainfall Rate (Hourly) solar
00:04 40.8 °F 40.3 °F 30.2 in NW 2 mph 5 mph 98% 0 in 0 W/m2
00:09 40.6 °F 40.1 °F 30.2 in NNW 0.9 mph 4 mph 98% 0 in 0 W/m2
00:14 40.6 °F 40.1 °F 30.2 in NNW 0.6 mph 4 mph 98% 0 in 0 W/m2
00:19 40.5 °F 39.7 °F 30.2 in NNW 0.2 mph 4 mph 97.6% 0 in 0 W/m2
00:24 40.5 °F 39.7 °F 30.2 in Calm     97% 0 in 0 W/m2
00:29 40.3 °F 39.6 °F 30.2 in Calm   3 mph 97% 0 in 0 W/m2
00:34 40.3 °F 39.6 °F 30.2 in NNW 0.6 mph 4 mph 97.5% 0 in 0 W/m2
00:39 40.1 °F 39.6 °F 30.2 in NNW 0.6 mph 5 mph 98% 0 in 0 W/m2
00:44 39.9 °F 39.4 °F 30.2 in NNW 1.1 mph 5 mph 98% 0 in 0 W/m2
00:49 39.7 °F 39 °F 30.2 in NW 3.7 mph 6 mph 97.2% 0 in 0 W/m2
00:54 39.6 °F 38.8 °F 30.2 in NNW 4.2 mph 7 mph 97% 0 in 0 W/m2
00:59 39.6 °F 38.8 °F 30.2 in NNW 4.6 mph 6 mph 97% 0 in 0 W/m2
01:04 39.6 °F 38.8 °F 30.2 in NNW 4 mph 5 mph 97% 0 in 0 W/m2
01:09 39.7 °F 38.8 °F 30.2 in NNW 4 mph 7 mph 97% 0 in 0 W/m2
01:14 39.7 °F 39 °F 30.2 in NNW 4.3 mph 7 mph 97% 0 in 0 W/m2
01:19 39.7 °F 39 °F 30.2 in NNW 3.9 mph 6 mph 97% 0 in 0 W/m2
01:24 39.7 °F 39 °F 30.2 in NNW 4.8 mph 8 mph 97% 0 in 0 W/m2
01:29 39.7 °F 39 °F 30.2 in NNW 6.3 mph 9 mph 97% 0 in 0 W/m2
01:34 39.7 °F 39 °F 30.2 in NNW 7.5 mph 10 mph 97% 0 in 0 W/m2
01:39 39.9 °F 39 °F 30.2 in NNW 7 mph 9 mph 97% 0 in 0 W/m2
01:44 39.9 °F 39.2 °F 30.2 in NW 6.9 mph 11 mph 97% 0 in 0 W/m2
01:49 40.5 °F 39.4 °F 30.2 in NW 5.3 mph 11 mph 96.1% 0 in 0 W/m2
01:54 40.6 °F 39.6 °F 30.2 in NNW 5 mph 6 mph 95.5% 0 in 0 W/m2
01:59 41.2 °F 39.6 °F 30.2 in NNW 5 mph 6 mph 94.4% 0 in 0 W/m2
02:04 41.2 °F 39.4 °F 30.2 in NW 4.3 mph 6 mph 93.2% 0 in 0 W/m2
02:09 41.4 °F 39.4 °F 30.2 in NNW 3.7 mph 5 mph 92.6% 0 in 0 W/m2
02:14 41.4 °F 39.2 °F 30.2 in NW 4.9 mph 8 mph 92% 0 in 0 W/m2
02:19 41.4 °F 39 °F 30.2 in NW 5.5 mph 7 mph 91.2% 0 in 0 W/m2
02:24 41.4 °F 38.8 °F 30.2 in NW 5.7 mph 7 mph 90.8% 0 in 0 W/m2
02:29 41.4 °F 38.7 °F 30.2 in NW 6 mph 7 mph 90.3% 0 in 0 W/m2
02:34 41.4 °F 38.5 °F 30.2 in NW 6.3 mph 8 mph 90% 0 in 0 W/m2
02:39 41.2 °F 38.5 °F 30.2 in NW 6 mph 8 mph 90% 0 in 0 W/m2
02:44 41.2 °F 38.7 °F 30.2 in NW 6.6 mph 9 mph 90.4% 0 in 0 W/m2
02:49 41 °F 38.7 °F 30.2 in NNW 6 mph 8 mph 91% 0 in 0 W/m2
02:54 41 °F 38.7 °F 30.2 in NNW 6 mph 8 mph 91% 0 in 0 W/m2
02:59 41 °F 38.7 °F 30.2 in NNW 6 mph 8 mph 91% 0 in 0 W/m2
03:04 41 °F 38.3 °F 30.2 in North 4.2 mph 7 mph 90.2% 0 in 0 W/m2
03:09 40.8 °F 38.1 °F 30.2 in NNW 3.7 mph 6 mph 90% 0 in 0 W/m2
03:14 40.8 °F 38.1 °F 30.2 in North 4 mph 6 mph 90% 0 in 0 W/m2
03:19 40.8 °F 38.1 °F 30.2 in NNW 4 mph 6 mph 90% 0 in 0 W/m2
03:24 40.8 °F 38.1 °F 30.2 in North 4.4 mph 6 mph 89.8% 0 in 0 W/m2
03:29 40.8 °F 38.1 °F 30.2 in North 4.4 mph 7 mph 90% 0 in 0 W/m2
03:34 40.8 °F 37.9 °F 30.2 in North 3.9 mph 7 mph 89.5% 0 in 0 W/m2
03:39 40.6 °F 37.9 °F 30.2 in North 0.9 mph 5 mph 90% 0 in 0 W/m2
03:44 40.6 °F 37.9 °F 30.2 in North 0.3 mph 2 mph 90% 0 in 0 W/m2
03:49 40.6 °F 37.9 °F 30.2 in Calm   1 mph 90% 0 in 0 W/m2
03:54 40.6 °F 37.9 °F 30.2 in Calm   1 mph 90% 0 in 0 W/m2
03:59 40.6 °F 37.9 °F 30.2 in Calm     90% 0 in 0 W/m2
04:04 40.5 °F 37.6 °F 30.2 in Calm     89.4% 0 in 0 W/m2
04:09 40.3 °F 37.4 °F 30.2 in Calm     89% 0 in 0 W/m2
04:14 40.5 °F 37.4 °F 30.2 in North 1.1 mph 3 mph 89% 0 in 0 W/m2
04:19 40.5 °F 37.4 °F 30.2 in North 2.1 mph 5 mph 89% 0 in 0 W/m2
04:24 40.3 °F 37 °F 30.2 in West 4.3 mph 5 mph 88.2% 0 in 0 W/m2
04:29 39.9 °F 36.9 °F 30.2 in WSW 3.8 mph 5 mph 88.6% 0 in 0 W/m2
04:34 39.7 °F 36.7 °F 30.2 in WSW 3.5 mph 4 mph 89% 0 in 0 W/m2
04:39 39.6 °F 36.7 °F 30.2 in WSW 1.8 mph 4 mph 89% 0 in 0 W/m2
04:44 39.7 °F 36.7 °F 30.2 in Calm   2 mph 89% 0 in 0 W/m2
04:49 39.6 °F 36.3 °F 30.2 in Calm     88.3% 0 in 0 W/m2
04:54 39.4 °F 36.1 °F 30.2 in Calm     88% 0 in 0 W/m2
04:59 39.4 °F 36 °F 30.2 in Calm     88% 0 in 0 W/m2
05:04 39 °F 35.8 °F 30.2 in Calm     88% 0 in 0 W/m2
05:09 39 °F 35.8 °F 30.2 in Calm     88% 0 in 0 W/m2
05:14 38.8 °F 35.8 °F 30.2 in Calm     88% 0 in 0 W/m2
05:19 38.8 °F 35.6 °F 30.2 in Calm     88% 0 in 0 W/m2
05:24 38.7 °F 35.4 °F 30.2 in Calm     87.8% 0 in 0 W/m2
05:29 38.5 °F 34.9 °F 30.2 in Calm     87% 0 in 0 W/m2
05:34 38.3 °F 34.9 °F 30.2 in Calm     87% 0 in 0 W/m2
05:39 38.1 °F 34.7 °F 30.2 in Calm     87% 0 in 0 W/m2
05:44 37.9 °F 34.5 °F 30.2 in Calm     87.5% 0 in 0 W/m2
05:49 38.3 °F 35.1 °F 30.2 in Calm     88% 0 in 0 W/m2
05:54 38.5 °F 34.9 °F 30.2 in Calm     87.1% 0 in 0 W/m2
05:59 38.5 °F 34.7 °F 30.2 in Calm     86.1% 0 in 0 W/m2
06:04 38.1 °F 34.3 °F 30.2 in WSW 0.3 mph 4 mph 86% 0 in 0 W/m2
06:09 37.8 °F 34.2 °F 30.2 in WSW 2.6 mph 4 mph 86.6% 0 in 0 W/m2
06:14 37.6 °F 34.2 °F 30.2 in WSW 0.9 mph 3 mph 87.7% 0 in 0 W/m2
06:19 37.2 °F 34.2 °F 30.2 in Calm     88.3% 0 in 0 W/m2
06:24 37.2 °F 34.3 °F 30.2 in Calm     89% 0 in 0 W/m2
06:29 37 °F 34.2 °F 30.2 in Calm     89.4% 0 in 0 W/m2
06:34 37.4 °F 34.7 °F 30.2 in Calm     90% 0 in 0 W/m2
06:39 37.8 °F 35.1 °F 30.2 in Calm     90% 0 in 0 W/m2
06:44 37.9 °F 35.1 °F 30.2 in Calm     89.1% 0 in 0 W/m2
06:49 37.6 °F 34.2 °F 30.2 in Calm     88% 0 in 0 W/m2
06:54 37 °F 33.8 °F 30.2 in Calm     88% 0 in 0 W/m2
06:59 36.9 °F 33.8 °F 30.2 in Calm     88.6% 0 in 0 W/m2
07:04 37 °F 34.2 °F 30.2 in WSW 1.3 mph 4 mph 89.4% 0 in 0 W/m2
07:09 37.2 °F 34.3 °F 30.2 in WSW 2 mph 4 mph 89.1% 0 in 0 W/m2
07:14 37.4 °F 34.5 °F 30.2 in WSW 1.1 mph 3 mph 89% 0 in 0 W/m2
07:19 37.6 °F 34.5 °F 30.2 in WSW 0.2 mph 2 mph 89% 0 in 0 W/m2
07:24 37.6 °F 34.5 °F 30.2 in Calm     89% 0 in 0 W/m2
07:29 37.6 °F 34.3 °F 30.2 in WSW 1.6 mph 4 mph 88.3% 0 in 0 W/m2
07:34 38.1 °F 35.1 °F 30.2 in WSW 4 mph 5 mph 88.6% 0 in 0 W/m2
07:39 39 °F 35.4 °F 30.2 in WSW 5 mph 5 mph 86.5% 0 in 0 W/m2
07:44 39 °F 34.9 °F 30.2 in WSW 4.1 mph 5 mph 85% 0 in 0 W/m2
07:49 38.7 °F 34.5 °F 30.2 in WSW 3.4 mph 5 mph 85% 0 in 5 W/m2
07:54 38.7 °F 34.7 °F 30.2 in WSW 2.3 mph 5 mph 86% 0 in 7 W/m2
07:59 38.5 °F 34.7 °F 30.2 in WSW 4 mph 5 mph 86% 0 in 9 W/m2
08:04 38.3 °F 34.5 °F 30.2 in West 4 mph 5 mph 86% 0 in 14 W/m2
08:09 38.3 °F 34.5 °F 30.2 in West 4.1 mph 6 mph 86% 0 in 18 W/m2
08:14 38.3 °F 34.5 °F 30.2 in West 4.5 mph 6 mph 86% 0 in 18 W/m2
08:19 38.5 °F 34.7 °F 30.2 in West 4 mph 5 mph 86% 0 in 21 W/m2
08:24 38.7 °F 34.7 °F 30.2 in West 2.7 mph 5 mph 85.3% 0 in 25 W/m2
08:29 38.7 °F 34.5 °F 30.2 in West 2.4 mph 4 mph 85% 0 in 25 W/m2
08:34 38.3 °F 34.3 °F 30.2 in West 3.5 mph 5 mph 85.6% 0 in 28 W/m2
08:39 38.3 °F 34.5 °F 30.2 in West 4.2 mph 8 mph 86.2% 0 in 33 W/m2
08:44 38.5 °F 34.7 °F 30.2 in WNW 6.2 mph 8 mph 86.3% 0 in 37 W/m2
08:49 38.5 °F 35.1 °F 30.2 in WNW 5.7 mph 8 mph 87.4% 0 in 40 W/m2
08:54 38.5 °F 35.2 °F 30.2 in WNW 4.4 mph 6 mph 88.2% 0 in 40 W/m2
08:59 38.1 °F 35.2 °F 30.2 in NW 2.5 mph 6 mph 88.8% 0 in 47 W/m2
09:04 38.1 °F 35.2 °F 30.2 in NW 0.2 mph 4 mph 89.3% 0 in 49 W/m2
09:09 38.3 °F 35.6 °F 30.2 in WNW 2.4 mph 5 mph 89.8% 0 in 51 W/m2
09:14 38.5 °F 35.8 °F 30.2 in WNW 3.7 mph 5 mph 90% 0 in 49 W/m2
09:19 38.5 °F 35.8 °F 30.2 in WNW 4.2 mph 5 mph 90% 0 in 49 W/m2
09:24 38.5 °F 36.1 °F 30.2 in WNW 3.7 mph 5 mph 90.9% 0 in 53 W/m2
09:29 38.7 °F 36.1 °F 30.2 in WNW 0.4 mph 4 mph 91% 0 in 56 W/m2
09:34 38.7 °F 36.3 °F 30.2 in Calm   1 mph 91% 0 in 65 W/m2
09:39 38.7 °F 36.3 °F 30.2 in Calm   1 mph 91% 0 in 77 W/m2
09:44 38.7 °F 36.3 °F 30.2 in Calm     91% 0 in 88 W/m2
09:49 38.7 °F 36.3 °F 30.2 in Calm     91.3% 0 in 91 W/m2
09:54 38.8 °F 36.7 °F 30.2 in East 0.1 mph 4 mph 92% 0 in 100 W/m2
09:59 39 °F 36.9 °F 30.2 in East 0.9 mph 4 mph 92% 0 in 97 W/m2
10:04 39 °F 37 °F 30.2 in Calm   1 mph 92% 0 in 149 W/m2
10:09 39.4 °F 37.2 °F 30.2 in Calm     92% 0 in 151 W/m2
10:14 39.6 °F 37.4 °F 30.2 in Calm     92% 0 in 167 W/m2
10:19 39.7 °F 37.6 °F 30.2 in Calm     92% 0 in 107 W/m2
10:24 39.7 °F 37.8 °F 30.2 in Calm     92% 0 in 77 W/m2
10:29 39.7 °F 37.4 °F 30.2 in Calm     91% 0 in 84 W/m2
10:34 39.9 °F 37.4 °F 30.2 in Calm     91% 0 in 199 W/m2
10:39 39.9 °F 37.8 °F 30.2 in Calm     91.5% 0 in 213 W/m2
10:44 40.3 °F 38.1 °F 30.2 in Calm     92% 0 in 225 W/m2
10:49 40.5 °F 38.1 °F 30.2 in Calm     91.4% 0 in 230 W/m2
10:54 40.6 °F 38.1 °F 30.2 in Calm     91% 0 in 234 W/m2
10:59 40.6 °F 38.3 °F 30.2 in Calm     91% 0 in 234 W/m2
11:04 40.8 °F 38.5 °F 30.2 in Calm   1 mph 91% 0 in 234 W/m2
11:09 41 °F 38.3 °F 30.2 in East 0.5 mph 3 mph 90.3% 0 in 234 W/m2
11:14 41.2 °F 38.5 °F 30.2 in Calm   3 mph 90% 0 in 237 W/m2
11:19 41.2 °F 38.5 °F 30.1 in Calm   2 mph 90% 0 in 239 W/m2
11:24 41.4 °F 38.5 °F 30.1 in NE 0.8 mph 4 mph 89.8% 0 in 243 W/m2
11:29 41.4 °F 38.5 °F 30.1 in NNW 1.4 mph 5 mph 89.4% 0 in 246 W/m2
11:34 41.7 °F 38.8 °F 30.1 in NW 2.5 mph 5 mph 89.3% 0 in 250 W/m2
11:39 41.9 °F 38.8 °F 30.1 in NW 1.9 mph 5 mph 89% 0 in 251 W/m2
11:44 42.1 °F 39 °F 30.1 in NW 2.1 mph 5 mph 89% 0 in 251 W/m2
11:49 42.4 °F 39.4 °F 30.1 in NW 1.4 mph 5 mph 89% 0 in 251 W/m2
11:54 42.4 °F 39.2 °F 30.1 in NW 1 mph 5 mph 88.2% 0 in 248 W/m2
11:59 42.6 °F 39 °F 30.1 in NW 1 mph 5 mph 87.1% 0 in 251 W/m2
12:04 42.8 °F 38.8 °F 30.1 in NNW 1.2 mph 4 mph 85.9% 0 in 253 W/m2
12:09 43 °F 38.8 °F 30.1 in NNW 0.2 mph 3 mph 84.7% 0 in 257 W/m2
12:14 43.3 °F 38.7 °F 30.1 in NNW 0.7 mph 3 mph 83.7% 0 in 251 W/m2
12:19 43.5 °F 38.7 °F 30.1 in NNW 0.2 mph 2 mph 83% 0 in 251 W/m2
12:24 43.7 °F 38.7 °F 30.1 in NNW 0.8 mph 4 mph 82% 0 in 250 W/m2
12:29 43.9 °F 38.5 °F 30.1 in NNE 1.2 mph 4 mph 81% 0 in 246 W/m2
12:34 44.1 °F 38.3 °F 30.1 in East 0.7 mph 2 mph 80% 0 in 246 W/m2
12:39 44.2 °F 38.5 °F 30.1 in Calm   1 mph 80% 0 in 239 W/m2
12:44 44.4 °F 38.5 °F 30.1 in Calm     79.5% 0 in 241 W/m2
12:49 44.8 °F 38.8 °F 30.1 in Calm     80.1% 0 in 239 W/m2
12:54 45 °F 39.6 °F 30.1 in Calm   1 mph 80.6% 0 in 236 W/m2
12:59 45.3 °F 39.6 °F 30.1 in Calm     80.3% 0 in 236 W/m2
13:04 45.5 °F 39.6 °F 30.1 in Calm     80% 0 in 232 W/m2
13:09 45.5 °F 39.6 °F 30.1 in Calm     79.6% 0 in 232 W/m2
13:14 45.3 °F 39.2 °F 30.1 in Calm     79% 0 in 221 W/m2
13:19 45.1 °F 39 °F 30.1 in ESE 0.1 mph 2 mph 79% 0 in 221 W/m2
13:24 45 °F 38.8 °F 30.1 in ESE 0.7 mph 3 mph 79% 0 in 221 W/m2
13:29 44.6 °F 38.7 °F 30.1 in East 0.5 mph 3 mph 79% 0 in 172 W/m2
13:34 44.4 °F 38.5 °F 30.1 in SE 1.2 mph 5 mph 79.4% 0 in 72 W/m2
13:39 44.2 °F 38.5 °F 30.1 in South 1 mph 5 mph 80% 0 in 70 W/m2
13:44 44.1 °F 38.3 °F 30.1 in South 0.8 mph 3 mph 80.3% 0 in 91 W/m2
13:49 43.9 °F 38.5 °F 30.1 in South 0.2 mph 3 mph 81% 0 in 169 W/m2
13:54 43.9 °F 38.5 °F 30.1 in South 0.3 mph 2 mph 81% 0 in 181 W/m2
13:59 44.2 °F 39 °F 30.1 in Calm   1 mph 81.7% 0 in 179 W/m2
14:04 44.2 °F 38.7 °F 30.1 in South 0.5 mph 4 mph 81% 0 in 165 W/m2
14:09 44.1 °F 38.5 °F 30.1 in SSE 1 mph 4 mph 81% 0 in 174 W/m2
14:14 43.9 °F 38.5 °F 30.1 in SSE 1.7 mph 5 mph 81% 0 in 178 W/m2
14:19 43.9 °F 38.3 °F 30.1 in SSE 2.1 mph 5 mph 81% 0 in 178 W/m2
14:24 43.9 °F 38.1 °F 30.1 in SSE 2.4 mph 5 mph 80.2% 0 in 174 W/m2
14:29 43.9 °F 37.8 °F 30.1 in SSE 0.9 mph 4 mph 79% 0 in 165 W/m2
14:34 43.9 °F 37.9 °F 30.1 in Calm   2 mph 79% 0 in 137 W/m2
14:39 44.2 °F 38.1 °F 30.1 in Calm     79% 0 in 114 W/m2
14:44 44.2 °F 37.8 °F 30.1 in Calm   2 mph 78% 0 in 100 W/m2
14:49 44.2 °F 38.1 °F 30.1 in Calm   2 mph 79% 0 in 90 W/m2
14:54 44.1 °F 38.7 °F 30.1 in Calm     81.2% 0 in 49 W/m2
14:59 43.7 °F 38.8 °F 30.1 in Calm     82.9% 0 in 25 W/m2
15:04 43.3 °F 38.7 °F 30.1 in Calm     83.8% 0 in 23 W/m2
15:09 43.2 °F 38.7 °F 30.1 in Calm     84% 0 in 37 W/m2
15:14 43 °F 38.7 °F 30.1 in Calm     84.2% 0 in 37 W/m2
15:19 43 °F 38.7 °F 30.1 in Calm     85% 0 in 16 W/m2
15:24 42.6 °F 38.3 °F 30.1 in Calm     85% 0 in 14 W/m2
15:29 42.3 °F 38.1 °F 30.1 in Calm     85% 0 in 14 W/m2
15:30 42.1 °F 37.9 °F 30.1 in Calm     85% 0 in 12 W/m2
15:39 41.7 °F 37.4 °F 30.1 in Calm     85% 0 in 9 W/m2
15:44 41.5 °F 37.4 °F 30.1 in Calm     85% 0 in 7 W/m2
15:49 41.4 °F 37.2 °F 30.1 in Calm     85% 0 in 7 W/m2
15:54 41.2 °F 36.9 °F 30.1 in Calm     85% 0 in 5 W/m2
15:59 40.8 °F 36.7 °F 30.1 in Calm     85% 0 in 5 W/m2
16:04 40.6 °F 36.9 °F 30.1 in Calm     86% 0 in 0 W/m2
16:09 40.5 °F 36.7 °F 30.1 in Calm     86% 0 in 0 W/m2
16:14 40.5 °F 36.5 °F 30.1 in Calm     86.2% 0 in 0 W/m2
16:19 40.1 °F 36.5 °F 30.1 in Calm     87% 0 in 0 W/m2
16:24 39.9 °F 36.3 °F 30.1 in Calm     87% 0 in 0 W/m2
16:29 39.7 °F 36.5 °F 30.1 in Calm     87.7% 0 in 0 W/m2
16:34 39.7 °F 36.5 °F 30.1 in Calm     88% 0 in 0 W/m2
16:39 39.6 °F 36.3 °F 30.1 in Calm     88% 0 in 0 W/m2
16:44 39.6 °F 36.3 °F 30.1 in Calm     88% 0 in 0 W/m2
16:49 39.4 °F 36.1 °F 30.1 in Calm   1 mph 88% 0 in 0 W/m2
16:54 39.2 °F 36 °F 30.1 in Calm     88% 0 in 0 W/m2
16:59 39 °F 36.1 °F 30.1 in Calm     88.9% 0 in 0 W/m2
17:04 39 °F 36.1 °F 30.1 in West 0.6 mph 2 mph 89% 0 in 0 W/m2
17:09 39 °F 36 °F 30.1 in South 0.9 mph 2 mph 89% 0 in 0 W/m2
17:14 38.8 °F 36 °F 30.1 in Calm   2 mph 89% 0 in 0 W/m2
17:19 38.7 °F 35.8 °F 30.1 in Calm     89% 0 in 0 W/m2
17:24 38.7 °F 35.6 °F 30.1 in Calm     89% 0 in 0 W/m2
17:29 38.5 °F 35.6 °F 30.1 in South 0.4 mph 2 mph 89.6% 0 in 0 W/m2
17:34 38.5 °F 35.8 °F 30.1 in South 1 mph 2 mph 90% 0 in 0 W/m2
17:39 38.5 °F 35.8 °F 30.1 in South 0.8 mph 4 mph 90% 0 in 0 W/m2
17:44 38.5 °F 35.8 °F 30.1 in South 1 mph 4 mph 89.9% 0 in 0 W/m2
17:49 38.5 °F 35.4 °F 30.1 in South 0.5 mph 4 mph 89% 0 in 0 W/m2
17:54 38.5 °F 35.4 °F 30.1 in South 0.4 mph 2 mph 89% 0 in 0 W/m2
17:59 38.5 °F 35.4 °F 30.1 in South 0.2 mph 2 mph 88.8% 0 in 0 W/m2
18:04 37.9 °F 34.7 °F 30.1 in Calm   1 mph 88% 0 in 0 W/m2
18:09 37.8 °F 34.5 °F 30.1 in Calm     88.2% 0 in 0 W/m2
18:14 37.6 °F 34.5 °F 30.1 in Calm     89% 0 in 0 W/m2
18:19 37.4 °F 34.5 °F 30.1 in Calm     89% 0 in 0 W/m2
18:24 37.4 °F 34.5 °F 30.1 in Calm     89% 0 in 0 W/m2
18:29 37.2 °F 34.3 °F 30.1 in Calm   1 mph 89% 0 in 0 W/m2
18:34 37 °F 34.3 °F 30.1 in Calm     89.7% 0 in 0 W/m2
18:39 37 °F 34.3 °F 30.1 in Calm     90% 0 in 0 W/m2
18:44 37 °F 34.5 °F 30.1 in Calm     90% 0 in 0 W/m2
18:49 37.2 °F 34.7 °F 30.1 in Calm     90% 0 in 0 W/m2
18:54 37.4 °F 34.7 °F 30.1 in Calm     90% 0 in 0 W/m2
18:59 37.4 °F 34.7 °F 30.1 in Calm     90% 0 in 0 W/m2
19:04 37.6 °F 35.1 °F 30.1 in Calm     90.7% 0 in 0 W/m2
19:09 37.6 °F 35.2 °F 30.1 in Calm     91% 0 in 0 W/m2
19:14 37.8 °F 35.4 °F 30.1 in Calm     91% 0 in 0 W/m2
19:19 37.8 °F 35.4 °F 30.1 in Calm     91% 0 in 0 W/m2
19:24 37.9 °F 35.6 °F 30.1 in Calm     91% 0 in 0 W/m2
19:29 38.1 °F 35.8 °F 30.1 in Calm     91% 0 in 0 W/m2
19:34 38.1 °F 35.8 °F 30.1 in Calm     91% 0 in 0 W/m2
19:39 38.1 °F 35.6 °F 30.1 in Calm     90.8% 0 in 0 W/m2
19:44 37.9 °F 35.4 °F 30.1 in Calm     90.7% 0 in 0 W/m2
19:49 37.9 °F 35.4 °F 30.1 in Calm     91% 0 in 0 W/m2
19:54 37.8 °F 35.4 °F 30.1 in Calm     91% 0 in 0 W/m2
19:59 37.9 °F 35.4 °F 30.1 in Calm     91% 0 in 0 W/m2
20:04 37.8 °F 35.4 °F 30.1 in Calm     91% 0 in 0 W/m2
20:09 37.6 °F 35.2 °F 30.1 in Calm     91% 0 in 0 W/m2
20:14 37.6 °F 35.4 °F 30.1 in Calm     91.7% 0 in 0 W/m2
20:19 37.6 °F 35.4 °F 30.1 in Calm     92% 0 in 0 W/m2
20:24 37.4 °F 35.2 °F 30.1 in Calm     91.7% 0 in 0 W/m2
20:29 37.4 °F 35.2 °F 30.1 in Calm     91.9% 0 in 0 W/m2
20:34 37.2 °F 35.1 °F 30.1 in Calm     91.7% 0 in 0 W/m2
20:39 36.9 °F 34.5 °F 30.1 in Calm     91% 0 in 0 W/m2
20:44 36.7 °F 34.3 °F 30.1 in Calm     91.4% 0 in 0 W/m2
20:49 36.7 °F 34.5 °F 30.1 in Calm     92% 0 in 0 W/m2
20:54 36.7 °F 34.5 °F 30.1 in Calm     92% 0 in 0 W/m2
20:59 36.5 °F 34.5 °F 30.1 in Calm     92% 0 in 0 W/m2
21:04 36.3 °F 34.2 °F 30.1 in Calm     92% 0 in 0 W/m2
21:09 36.1 °F 34 °F 30.1 in Calm     92% 0 in 0 W/m2
21:14 36.1 °F 34 °F 30.1 in Calm     92.1% 0 in 0 W/m2
21:19 36.1 °F 34.3 °F 30.1 in Calm     93% 0 in 0 W/m2
21:24 36.3 °F 34.5 °F 30.1 in Calm     93% 0 in 0 W/m2
21:29 36.3 °F 34.5 °F 30.1 in Calm     93% 0 in 0 W/m2
21:34 36.3 °F 34.5 °F 30.1 in Calm     93% 0 in 0 W/m2
21:39 36.3 °F 34.5 °F 30.1 in Calm     93% 0 in 0 W/m2
21:44 36.1 °F 34.2 °F 30.1 in Calm     92.8% 0 in 0 W/m2
21:49 36.1 °F 34.2 °F 30.1 in Calm     92.7% 0 in 0 W/m2
21:54 36 °F 34.2 °F 30.1 in Calm     93% 0 in 0 W/m2
21:59 36 °F 34.2 °F 30.1 in Calm     93% 0 in 0 W/m2
22:04 36 °F 34.2 °F 30.1 in Calm     93% 0 in 0 W/m2
22:09 36 °F 34.2 °F 30.1 in Calm     93% 0 in 0 W/m2
22:14 36 °F 34.2 °F 30.1 in Calm     93% 0 in 0 W/m2
22:19 36 °F 34.2 °F 30.1 in Calm     93% 0 in 0 W/m2
22:24 36 °F 34.2 °F 30.1 in Calm     93% 0 in 0 W/m2
22:29 35.8 °F 34 °F 30.1 in Calm     93% 0 in 0 W/m2
22:34 35.8 °F 34 °F 30.1 in Calm     93% 0 in 0 W/m2
22:39 35.8 °F 34 °F 30.1 in Calm     93% 0 in 0 W/m2
22:44 35.8 °F 34 °F 30.1 in Calm     93.3% 0 in 0 W/m2
22:49 35.8 °F 34.2 °F 30.1 in Calm     94% 0 in 0 W/m2
22:54 35.6 °F 34 °F 30.1 in Calm     94% 0 in 0 W/m2
22:59 35.8 °F 34.2 °F 30.1 in Calm     94% 0 in 0 W/m2
23:04 35.8 °F 34.2 °F 30.1 in Calm     94% 0 in 0 W/m2
23:09 35.6 °F 34 °F 30.1 in Calm     94% 0 in 0 W/m2
23:14 35.8 °F 34.2 °F 30.1 in Calm     94% 0 in 0 W/m2
23:19 36.3 °F 35.1 °F 30.1 in Calm     95% 0 in 0 W/m2
23:24 36.7 °F 35.4 °F 30.1 in Calm     95% 0 in 0 W/m2
23:29 36.7 °F 35.4 °F 30.1 in Calm     95% 0 in 0 W/m2
23:34 36.7 °F 35.1 °F 30.1 in Calm     94% 0 in 0 W/m2
23:39 36.3 °F 34.9 °F 30.1 in Calm     94% 0 in 0 W/m2
23:44 36.1 °F 34.5 °F 30.1 in Calm     94% 0 in 0 W/m2
23:49 36.1 °F 34.5 °F 30.1 in Calm     94% 0 in 0 W/m2
23:54 36 °F 34.5 °F 30.1 in Calm     94% 0 in 0 W/m2
23:59 36.1 °F 34.7 °F 30.1 in Calm     94.5% 0 in 0 W/m2
North Lincolnshire Weather
Compliments of Weather Underground - 2 mb

Data updates at regular intervals.